createdAt,value
2023-04-20T00:01:13.341Z,71.00
2023-04-20T00:03:40.171Z,71.10
2023-04-20T00:06:07.872Z,71.00
2023-04-20T00:08:34.646Z,70.90
2023-04-20T00:11:01.298Z,70.90
2023-04-20T00:13:27.952Z,70.80
2023-04-20T00:15:54.586Z,70.90
2023-04-20T00:18:21.495Z,70.90
2023-04-20T00:20:48.133Z,70.80
2023-04-20T00:23:15.126Z,70.70
2023-04-20T00:25:41.854Z,70.70
2023-04-20T00:28:08.527Z,70.70
2023-04-20T00:30:35.228Z,70.70
2023-04-20T00:33:03.754Z,70.70
2023-04-20T00:35:30.475Z,70.70
2023-04-20T00:37:57.160Z,70.60
2023-04-20T00:40:25.632Z,70.60
2023-04-20T00:42:52.308Z,70.50
2023-04-20T00:45:19.084Z,70.60
2023-04-20T00:47:46.236Z,70.60
2023-04-20T00:50:13.059Z,70.50
2023-04-20T00:52:40.745Z,70.60
2023-04-20T00:55:07.753Z,70.60
2023-04-20T00:57:35.471Z,70.60
2023-04-20T01:00:02.172Z,70.40
2023-04-20T01:02:28.968Z,70.40
2023-04-20T01:04:56.411Z,70.10
2023-04-20T01:07:23.132Z,70.30
2023-04-20T01:09:50.174Z,70.50
2023-04-20T01:12:16.852Z,70.50
2023-04-20T01:14:43.976Z,70.60
2023-04-20T01:17:11.532Z,70.60
2023-04-20T01:19:38.238Z,70.70
2023-04-20T01:22:05.097Z,70.70
2023-04-20T01:24:31.737Z,70.70
2023-04-20T01:26:59.337Z,70.50
2023-04-20T01:29:28.027Z,70.50
2023-04-20T01:31:54.780Z,70.30
2023-04-20T01:34:21.640Z,70.40
2023-04-20T01:36:48.389Z,70.40
2023-04-20T01:39:15.207Z,70.40
2023-04-20T01:41:42.172Z,70.30
2023-04-20T01:44:08.981Z,70.20
2023-04-20T01:46:39.624Z,70.00
2023-04-20T01:49:08.173Z,70.10
2023-04-20T01:51:35.599Z,70.20
2023-04-20T01:54:02.833Z,70.00
2023-04-20T01:56:29.859Z,70.10
2023-04-20T01:58:58.782Z,70.30
2023-04-20T02:01:26.973Z,69.90
2023-04-20T02:03:53.918Z,69.90
2023-04-20T02:06:21.252Z,70.30
2023-04-20T02:08:47.990Z,70.60
2023-04-20T02:11:14.720Z,70.40
2023-04-20T02:13:41.629Z,70.50
2023-04-20T02:16:08.516Z,70.10
2023-04-20T02:18:35.499Z,70.10
2023-04-20T02:21:02.183Z,70.50
2023-04-20T02:23:28.905Z,70.40
2023-04-20T02:25:55.585Z,70.10
2023-04-20T02:28:22.325Z,70.10
2023-04-20T02:30:49.027Z,69.80
2023-04-20T02:33:15.781Z,70.20
2023-04-20T02:35:42.454Z,70.20
2023-04-20T02:38:10.899Z,70.20
2023-04-20T02:40:38.961Z,70.10
2023-04-20T02:43:06.567Z,70.30
2023-04-20T02:45:33.867Z,70.10
2023-04-20T02:48:01.085Z,70.30
2023-04-20T02:50:31.118Z,70.20
2023-04-20T02:53:16.248Z,70.20
2023-04-20T02:55:46.365Z,70.10
2023-04-20T02:58:27.307Z,70.10
2023-04-20T03:01:12.820Z,70.00
2023-04-20T03:03:39.829Z,70.10
2023-04-20T03:06:10.508Z,69.90
2023-04-20T03:08:37.321Z,70.10
2023-04-20T03:11:23.892Z,70.00
2023-04-20T03:13:50.712Z,69.90
2023-04-20T03:16:18.111Z,70.00
2023-04-20T03:18:48.656Z,69.90
2023-04-20T03:21:16.370Z,70.10
2023-04-20T03:23:44.081Z,70.20
2023-04-20T03:26:12.847Z,70.00
2023-04-20T03:28:52.880Z,70.00
2023-04-20T03:31:24.095Z,70.00
2023-04-20T03:33:52.377Z,69.60
2023-04-20T03:36:19.039Z,69.80
2023-04-20T03:38:45.785Z,69.50
2023-04-20T03:41:12.471Z,69.20
2023-04-20T03:43:39.128Z,69.60
2023-04-20T03:46:05.895Z,69.90
2023-04-20T03:48:33.338Z,69.70
2023-04-20T03:51:00.208Z,69.30
2023-04-20T03:53:28.980Z,69.60
2023-04-20T03:55:56.119Z,69.20
2023-04-20T03:58:22.825Z,69.60
2023-04-20T04:01:13.263Z,69.70
2023-04-20T04:03:44.469Z,69.00
2023-04-20T04:06:12.073Z,69.30
2023-04-20T04:08:38.775Z,69.30
2023-04-20T04:11:05.508Z,69.40
2023-04-20T04:13:34.408Z,69.10
2023-04-20T04:16:02.386Z,69.40
2023-04-20T04:18:32.414Z,69.20
2023-04-20T04:21:01.771Z,69.30
2023-04-20T04:23:28.514Z,69.10
2023-04-20T04:26:14.189Z,69.10
2023-04-20T04:28:45.810Z,69.10
2023-04-20T04:31:21.539Z,68.90
2023-04-20T04:33:49.518Z,68.80
2023-04-20T04:36:26.805Z,69.30
2023-04-20T04:38:54.628Z,70.00
2023-04-20T04:41:22.002Z,69.20
2023-04-20T04:43:48.869Z,69.00
2023-04-20T04:46:25.478Z,69.00
2023-04-20T04:48:52.215Z,69.20
2023-04-20T04:51:18.899Z,68.80
2023-04-20T04:53:47.351Z,69.00
2023-04-20T04:56:14.339Z,69.10
2023-04-20T04:58:41.070Z,69.00
2023-04-20T05:01:07.705Z,69.20
2023-04-20T05:03:34.518Z,69.50
2023-04-20T05:06:01.293Z,69.70
2023-04-20T05:08:27.967Z,69.70
2023-04-20T05:10:54.644Z,69.90
2023-04-20T05:13:21.324Z,69.90
2023-04-20T05:15:48.089Z,69.80
2023-04-20T05:18:14.808Z,69.40
2023-04-20T05:20:41.485Z,69.70
2023-04-20T05:23:08.337Z,69.40
2023-04-20T05:25:35.194Z,69.50
2023-04-20T05:28:01.835Z,69.50
2023-04-20T05:30:28.515Z,69.30
2023-04-20T05:32:55.466Z,69.30
2023-04-20T05:35:22.348Z,69.20
2023-04-20T05:37:49.339Z,69.00
2023-04-20T05:40:16.050Z,69.00
2023-04-20T05:42:42.933Z,69.10
2023-04-20T05:45:10.328Z,69.40
2023-04-20T05:47:37.073Z,69.10
2023-04-20T05:50:04.746Z,69.00
2023-04-20T05:52:31.388Z,69.20
2023-04-20T05:54:59.388Z,68.90
2023-04-20T05:57:26.208Z,69.30
2023-04-20T05:59:55.340Z,69.00
2023-04-20T06:02:22.257Z,70.30
2023-04-20T06:04:49.168Z,71.10
2023-04-20T06:07:15.991Z,71.20
2023-04-20T06:09:42.701Z,71.10
2023-04-20T06:12:09.787Z,71.10
2023-04-20T06:14:37.013Z,70.90
2023-04-20T06:17:03.676Z,71.00
2023-04-20T06:19:30.323Z,71.20
2023-04-20T06:22:00.198Z,71.50
2023-04-20T06:24:27.883Z,71.70
2023-04-20T06:26:54.899Z,71.60
2023-04-20T06:29:21.662Z,71.90
2023-04-20T06:31:48.328Z,71.20
2023-04-20T06:34:16.132Z,71.30
2023-04-20T06:36:43.620Z,71.30
2023-04-20T06:39:11.476Z,71.10
2023-04-20T06:41:38.915Z,70.90
2023-04-20T06:44:06.753Z,70.50
2023-04-20T06:46:33.513Z,71.10
2023-04-20T06:49:00.219Z,70.10
2023-04-20T06:51:28.304Z,70.20
2023-04-20T06:53:56.075Z,70.30
2023-04-20T06:56:22.768Z,70.20
2023-04-20T06:58:50.130Z,70.20
2023-04-20T07:01:17.005Z,70.20
2023-04-20T07:03:44.001Z,70.30
2023-04-20T07:06:11.720Z,70.10
2023-04-20T07:08:39.247Z,70.60
2023-04-20T07:11:05.981Z,70.70
2023-04-20T07:13:33.977Z,71.00
2023-04-20T07:16:01.099Z,71.20
2023-04-20T07:18:27.788Z,70.80
2023-04-20T07:20:54.524Z,70.50
2023-04-20T07:23:21.388Z,70.60
2023-04-20T07:25:48.161Z,70.60
2023-04-20T07:28:14.841Z,70.70
2023-04-20T07:30:41.594Z,70.50
2023-04-20T07:33:09.127Z,70.60
2023-04-20T07:35:36.033Z,70.40
2023-04-20T07:38:02.756Z,69.90
2023-04-20T07:40:29.395Z,70.30
2023-04-20T07:42:56.164Z,70.20
2023-04-20T07:45:24.086Z,70.40
2023-04-20T07:47:52.297Z,70.10
2023-04-20T07:50:19.020Z,70.20
2023-04-20T07:52:45.646Z,69.90
2023-04-20T07:55:14.055Z,69.90
2023-04-20T07:57:41.597Z,69.30
2023-04-20T08:00:09.816Z,69.80
2023-04-20T08:02:45.497Z,69.70
2023-04-20T08:05:12.751Z,69.40
2023-04-20T08:07:39.845Z,69.50
2023-04-20T08:10:07.570Z,69.90
2023-04-20T08:12:34.324Z,68.70
2023-04-20T08:15:04.228Z,69.30
2023-04-20T08:17:31.060Z,69.50
2023-04-20T08:19:57.759Z,69.70
2023-04-20T08:22:27.106Z,69.80
2023-04-20T08:24:53.789Z,69.60
2023-04-20T08:27:20.937Z,69.40
2023-04-20T08:29:47.592Z,68.90
2023-04-20T08:32:15.466Z,69.10
2023-04-20T08:34:42.200Z,68.50
2023-04-20T08:37:09.229Z,69.10
2023-04-20T08:39:36.471Z,69.30
2023-04-20T08:42:03.279Z,69.20
2023-04-20T08:44:29.992Z,68.90
2023-04-20T08:46:56.817Z,69.30
2023-04-20T08:49:24.756Z,69.30
2023-04-20T08:51:51.470Z,69.20
2023-04-20T08:54:18.342Z,69.30
2023-04-20T08:56:47.036Z,68.90
2023-04-20T08:59:15.089Z,69.30
2023-04-20T09:01:42.874Z,69.60
2023-04-20T09:04:20.097Z,69.60
2023-04-20T09:06:51.777Z,69.30
2023-04-20T09:09:19.840Z,68.80
2023-04-20T09:11:47.174Z,69.30
2023-04-20T09:14:16.958Z,69.30
2023-04-20T09:16:51.090Z,69.40
2023-04-20T09:19:24.770Z,69.60
2023-04-20T09:21:53.665Z,69.60
2023-04-20T09:24:22.181Z,69.50
2023-04-20T09:26:49.114Z,69.50
2023-04-20T09:29:22.043Z,69.50
2023-04-20T09:31:50.141Z,69.60
2023-04-20T09:34:17.261Z,69.70
2023-04-20T09:36:50.366Z,69.70
2023-04-20T09:39:22.173Z,69.60
2023-04-20T09:41:50.613Z,69.50
2023-04-20T09:44:18.523Z,69.50
2023-04-20T09:46:46.692Z,69.30
2023-04-20T09:49:14.667Z,69.50
2023-04-20T09:51:46.766Z,70.40
2023-04-20T09:54:14.505Z,69.90
2023-04-20T09:56:41.480Z,70.10
2023-04-20T09:59:08.654Z,70.30
2023-04-20T10:01:37.447Z,70.10
2023-04-20T10:04:08.925Z,70.40
2023-04-20T10:06:36.693Z,70.00
2023-04-20T10:09:06.019Z,70.00
2023-04-20T10:11:45.190Z,70.30
2023-04-20T10:14:24.199Z,70.30
2023-04-20T10:17:06.495Z,69.90
2023-04-20T10:19:51.266Z,70.00
2023-04-20T10:22:32.594Z,69.70
2023-04-20T10:25:14.067Z,69.70
2023-04-20T10:27:52.171Z,69.80
2023-04-20T10:30:19.682Z,69.70
2023-04-20T10:32:46.506Z,69.70
2023-04-20T10:35:14.530Z,69.90
2023-04-20T10:37:51.266Z,69.60
2023-04-20T10:40:27.056Z,69.50
2023-04-20T10:42:53.971Z,69.50
2023-04-20T10:45:21.878Z,69.60
2023-04-20T10:47:48.680Z,69.50
2023-04-20T10:50:16.475Z,69.40
2023-04-20T10:52:44.672Z,69.40
2023-04-20T10:55:25.556Z,69.30
2023-04-20T10:57:53.185Z,69.40
2023-04-20T11:00:22.732Z,69.40
2023-04-20T11:02:51.450Z,69.40
2023-04-20T11:05:20.291Z,69.30
2023-04-20T11:07:59.187Z,69.30
2023-04-20T11:10:39.733Z,69.30
2023-04-20T11:13:06.886Z,69.40
2023-04-20T11:15:34.591Z,69.30
2023-04-20T11:18:08.725Z,69.30
2023-04-20T11:20:36.295Z,69.30
2023-04-20T11:23:05.087Z,69.40
2023-04-20T11:25:32.125Z,69.40
2023-04-20T11:28:11.095Z,69.40
2023-04-20T11:30:41.865Z,69.40
2023-04-20T11:33:09.677Z,69.40
2023-04-20T11:35:41.847Z,69.40
2023-04-20T11:38:09.011Z,69.40
2023-04-20T11:40:36.339Z,69.30
2023-04-20T11:43:04.770Z,69.40
2023-04-20T11:45:36.784Z,69.40
2023-04-20T11:48:05.035Z,69.40
2023-04-20T11:50:31.747Z,69.40
2023-04-20T11:52:58.412Z,69.50
2023-04-20T11:55:25.096Z,69.50
2023-04-20T11:57:51.818Z,69.40
2023-04-20T12:00:19.274Z,69.40
2023-04-20T12:02:47.595Z,69.40
2023-04-20T12:05:14.405Z,69.40
2023-04-20T12:07:41.239Z,69.40
2023-04-20T12:10:08.634Z,69.40
2023-04-20T12:12:35.552Z,69.50
2023-04-20T12:15:02.233Z,69.50
2023-04-20T12:17:28.904Z,70.10
2023-04-20T12:19:55.576Z,69.40
2023-04-20T12:22:22.231Z,69.50
2023-04-20T12:24:48.895Z,69.50
2023-04-20T12:27:15.578Z,69.40
2023-04-20T12:29:42.242Z,69.50
2023-04-20T12:32:08.950Z,69.50
2023-04-20T12:34:35.850Z,69.40
2023-04-20T12:37:02.540Z,69.50
2023-04-20T12:39:29.204Z,69.50
2023-04-20T12:41:56.900Z,69.50
2023-04-20T12:44:23.592Z,69.40
2023-04-20T12:46:50.338Z,69.50
2023-04-20T12:49:17.309Z,69.40
2023-04-20T12:51:44.214Z,69.50
2023-04-20T12:54:11.899Z,69.50
2023-04-20T12:56:38.594Z,69.50
2023-04-20T12:59:05.401Z,69.40
2023-04-20T13:01:32.139Z,69.40
2023-04-20T13:03:59.038Z,69.40
2023-04-20T13:06:26.478Z,69.40
2023-04-20T13:08:53.341Z,69.40
2023-04-20T13:11:20.002Z,69.50
2023-04-20T13:13:46.942Z,69.50
2023-04-20T13:16:14.251Z,69.50
2023-04-20T13:18:41.122Z,69.40
2023-04-20T13:21:08.350Z,69.40
2023-04-20T13:23:35.036Z,69.40
2023-04-20T13:26:01.805Z,69.50
2023-04-20T13:28:28.509Z,69.50
2023-04-20T13:30:57.365Z,69.50
2023-04-20T13:33:24.085Z,69.50
2023-04-20T13:35:50.771Z,69.40
2023-04-20T13:38:17.889Z,69.40
2023-04-20T13:40:44.557Z,69.40
2023-04-20T13:43:11.798Z,69.40
2023-04-20T13:45:38.997Z,69.50
2023-04-20T13:48:05.886Z,69.50
2023-04-20T13:50:32.600Z,69.50
2023-04-20T13:52:59.265Z,69.40
2023-04-20T13:55:27.216Z,69.40
2023-04-20T13:57:53.943Z,69.50
2023-04-20T14:00:21.732Z,69.50
2023-04-20T14:02:48.493Z,69.50
2023-04-20T14:05:15.412Z,69.50
2023-04-20T14:07:42.064Z,69.50
2023-04-20T14:10:09.275Z,69.50
2023-04-20T14:12:35.968Z,69.50
2023-04-20T14:15:02.712Z,69.50
2023-04-20T14:17:29.407Z,69.50
2023-04-20T14:19:56.185Z,69.50
2023-04-20T14:22:22.908Z,69.50
2023-04-20T14:24:49.588Z,69.50
2023-04-20T14:27:16.260Z,69.60
2023-04-20T14:29:43.059Z,69.50
2023-04-20T14:32:09.752Z,69.60
2023-04-20T14:34:36.485Z,69.60
2023-04-20T14:37:03.176Z,69.60
2023-04-20T14:39:29.825Z,69.60
2023-04-20T14:41:56.457Z,69.60
2023-04-20T14:44:23.254Z,69.60
2023-04-20T14:46:49.926Z,69.60
2023-04-20T14:49:16.867Z,69.60
2023-04-20T14:51:43.545Z,69.70
2023-04-20T14:54:10.967Z,69.70
2023-04-20T14:56:37.591Z,70.30
2023-04-20T14:59:04.340Z,69.70
2023-04-20T15:01:31.050Z,69.80
2023-04-20T15:03:57.865Z,69.70
2023-04-20T15:06:24.637Z,69.70
2023-04-20T15:08:54.481Z,69.80
2023-04-20T15:11:21.141Z,69.70
2023-04-20T15:13:49.403Z,69.70
2023-04-20T15:16:16.217Z,69.70
2023-04-20T15:18:43.185Z,69.70
2023-04-20T15:21:10.789Z,69.80
2023-04-20T15:23:37.551Z,69.90
2023-04-20T15:26:04.473Z,69.80
2023-04-20T15:28:31.115Z,69.80
2023-04-20T15:30:57.834Z,69.90
2023-04-20T15:33:24.494Z,69.90
2023-04-20T15:35:51.284Z,69.90
2023-04-20T15:38:18.007Z,69.90
2023-04-20T15:40:44.689Z,70.00
2023-04-20T15:43:11.385Z,69.90
2023-04-20T15:45:38.163Z,69.90
2023-04-20T15:48:04.998Z,70.00
2023-04-20T15:50:31.733Z,69.90
2023-04-20T15:52:58.437Z,69.90
2023-04-20T15:55:25.308Z,70.00
2023-04-20T15:57:56.998Z,70.00
2023-04-20T16:00:24.540Z,70.10
2023-04-20T16:02:51.404Z,70.00
2023-04-20T16:05:18.186Z,70.10
2023-04-20T16:07:45.036Z,70.00
2023-04-20T16:10:11.698Z,70.00
2023-04-20T16:12:38.378Z,70.10
2023-04-20T16:15:05.844Z,70.20
2023-04-20T16:17:32.566Z,70.20
2023-04-20T16:19:59.320Z,70.20
2023-04-20T16:22:26.117Z,70.10
2023-04-20T16:24:52.820Z,70.20
2023-04-20T16:27:19.457Z,70.20
2023-04-20T16:29:46.134Z,70.10
2023-04-20T16:32:13.094Z,70.20
2023-04-20T16:34:39.750Z,70.20
2023-04-20T16:37:06.445Z,70.30
2023-04-20T16:39:33.222Z,70.30
2023-04-20T16:41:59.916Z,70.20
2023-04-20T16:44:26.556Z,70.20
2023-04-20T16:46:53.272Z,70.90
2023-04-20T16:49:20.309Z,70.30
2023-04-20T16:51:47.684Z,70.40
2023-04-20T16:54:14.335Z,70.30
2023-04-20T16:56:41.001Z,70.40
2023-04-20T16:59:07.913Z,70.30
2023-04-20T17:01:34.694Z,70.40
2023-04-20T17:04:01.801Z,70.30
2023-04-20T17:06:28.645Z,70.40
2023-04-20T17:08:57.470Z,70.50
2023-04-20T17:11:24.280Z,70.50
2023-04-20T17:13:50.969Z,70.40
2023-04-20T17:16:17.841Z,70.40
2023-04-20T17:18:44.626Z,70.40
2023-04-20T17:21:11.274Z,70.40
2023-04-20T17:23:37.974Z,70.50
2023-04-20T17:26:04.746Z,70.60
2023-04-20T17:28:31.463Z,70.60
2023-04-20T17:30:58.148Z,70.60
2023-04-20T17:33:24.796Z,70.50
2023-04-20T17:35:51.449Z,70.60
2023-04-20T17:38:18.331Z,70.50
2023-04-20T17:40:44.974Z,70.60
2023-04-20T17:43:11.638Z,70.60
2023-04-20T17:45:38.405Z,70.60
2023-04-20T17:48:05.744Z,70.70
2023-04-20T17:50:34.416Z,70.70
2023-04-20T17:53:06.412Z,70.70
2023-04-20T17:55:34.595Z,70.70
2023-04-20T17:58:01.692Z,70.70
2023-04-20T18:00:28.476Z,70.80
2023-04-20T18:02:55.339Z,70.80
2023-04-20T18:05:22.239Z,70.70
2023-04-20T18:07:48.902Z,70.70
2023-04-20T18:10:15.961Z,70.80
2023-04-20T18:12:43.485Z,72.60
2023-04-20T18:15:10.696Z,74.20
2023-04-20T18:17:37.577Z,75.20
2023-04-20T18:20:05.801Z,75.80
2023-04-20T18:22:32.940Z,76.30
2023-04-20T18:24:59.635Z,76.20
2023-04-20T18:27:26.412Z,76.50
2023-04-20T18:29:53.598Z,76.80
2023-04-20T18:32:20.895Z,76.80
2023-04-20T18:34:47.873Z,77.10
2023-04-20T18:37:14.991Z,77.50
2023-04-20T18:39:41.723Z,77.60
2023-04-20T18:42:08.465Z,77.60
2023-04-20T18:44:35.227Z,77.30
2023-04-20T18:47:02.394Z,77.60
2023-04-20T18:49:30.478Z,77.60
2023-04-20T18:51:57.234Z,77.90
2023-04-20T18:54:23.905Z,76.10
2023-04-20T18:56:50.851Z,74.90
2023-04-20T18:59:18.461Z,74.30
2023-04-20T19:01:45.285Z,73.80
2023-04-20T19:04:12.116Z,73.60
2023-04-20T19:06:38.984Z,73.30
2023-04-20T19:09:07.996Z,73.10
2023-04-20T19:11:35.180Z,73.10
2023-04-20T19:14:01.842Z,73.00
2023-04-20T19:16:32.934Z,72.90
2023-04-20T19:19:00.556Z,72.80
2023-04-20T19:21:27.269Z,72.70
2023-04-20T19:23:53.930Z,72.70
2023-04-20T19:26:20.658Z,72.50
2023-04-20T19:28:47.367Z,72.40
2023-04-20T19:31:14.030Z,72.40
2023-04-20T19:33:41.020Z,72.30
2023-04-20T19:36:08.240Z,72.40
2023-04-20T19:38:37.366Z,72.40
2023-04-20T19:41:05.603Z,72.50
2023-04-20T19:43:32.386Z,72.30
2023-04-20T19:45:59.353Z,72.30
2023-04-20T19:48:26.718Z,72.30
2023-04-20T19:50:56.852Z,72.20
2023-04-20T19:53:25.104Z,72.50
2023-04-20T19:55:51.804Z,72.30
2023-04-20T19:58:18.855Z,72.40
2023-04-20T20:00:45.569Z,72.30
2023-04-20T20:03:14.982Z,72.30
2023-04-20T20:05:43.108Z,72.50
2023-04-20T20:08:09.809Z,72.50
2023-04-20T20:10:36.789Z,72.30
2023-04-20T20:13:03.782Z,72.20
2023-04-20T20:15:30.867Z,72.30
2023-04-20T20:17:59.283Z,72.40
2023-04-20T20:20:32.298Z,72.70
2023-04-20T20:22:59.804Z,72.60
2023-04-20T20:25:26.549Z,72.60
2023-04-20T20:27:53.373Z,72.50
2023-04-20T20:30:20.134Z,72.50
2023-04-20T20:32:46.943Z,72.70
2023-04-20T20:35:13.659Z,72.50
2023-04-20T20:37:41.514Z,72.50
2023-04-20T20:40:14.349Z,72.80
2023-04-20T20:42:45.065Z,72.80
2023-04-20T20:45:12.861Z,72.90
2023-04-20T20:47:40.884Z,73.10
2023-04-20T20:50:08.930Z,73.10
2023-04-20T20:52:35.681Z,73.20
2023-04-20T20:55:02.771Z,73.00
2023-04-20T20:57:29.842Z,73.00
2023-04-20T20:59:56.519Z,72.80
2023-04-20T21:02:23.392Z,73.00
2023-04-20T21:04:50.230Z,73.10
2023-04-20T21:07:17.096Z,73.20
2023-04-20T21:09:43.791Z,73.10
2023-04-20T21:12:10.459Z,73.20
2023-04-20T21:14:37.306Z,73.20
2023-04-20T21:17:04.783Z,73.10
2023-04-20T21:19:32.206Z,73.20
2023-04-20T21:21:58.988Z,73.30
2023-04-20T21:24:25.783Z,73.30
2023-04-20T21:26:52.702Z,73.30
2023-04-20T21:29:19.835Z,73.90
2023-04-20T21:31:46.756Z,73.30
2023-04-20T21:34:13.639Z,73.30
2023-04-20T21:36:40.639Z,73.30
2023-04-20T21:39:07.331Z,73.20
2023-04-20T21:41:34.341Z,73.20
2023-04-20T21:44:02.452Z,73.30
2023-04-20T21:46:29.545Z,73.20
2023-04-20T21:48:56.387Z,73.20
2023-04-20T21:51:23.051Z,73.20
2023-04-20T21:53:49.706Z,73.20
2023-04-20T21:56:16.388Z,73.30
2023-04-20T21:58:43.109Z,73.10
2023-04-20T22:01:09.831Z,73.40
2023-04-20T22:03:37.506Z,73.00
2023-04-20T22:06:04.857Z,72.80
2023-04-20T22:08:31.973Z,72.40
2023-04-20T22:10:58.664Z,72.50
2023-04-20T22:13:25.544Z,72.30
2023-04-20T22:15:52.707Z,72.30
2023-04-20T22:18:19.673Z,72.40
2023-04-20T22:20:46.450Z,72.30
2023-04-20T22:23:13.198Z,72.40
2023-04-20T22:25:40.752Z,72.40
2023-04-20T22:28:07.531Z,72.80
2023-04-20T22:30:35.579Z,72.20
2023-04-20T22:33:02.443Z,72.20
2023-04-20T22:35:29.496Z,72.20
2023-04-20T22:37:56.376Z,72.30
2023-04-20T22:40:23.781Z,72.50
2023-04-20T22:42:50.996Z,72.20
2023-04-20T22:45:19.723Z,72.20
2023-04-20T22:47:46.980Z,72.40
2023-04-20T22:50:14.257Z,72.40
2023-04-20T22:52:41.475Z,72.50
2023-04-20T22:55:09.515Z,72.50
2023-04-20T22:57:36.504Z,72.50
2023-04-20T23:00:10.269Z,72.50
2023-04-20T23:02:37.692Z,72.40
2023-04-20T23:05:05.629Z,72.50
2023-04-20T23:07:33.124Z,72.50
2023-04-20T23:10:00.297Z,72.50
2023-04-20T23:12:29.380Z,72.50
2023-04-20T23:14:56.590Z,72.50
2023-04-20T23:17:23.426Z,72.50
2023-04-20T23:19:50.983Z,72.50
2023-04-20T23:22:18.067Z,72.50
2023-04-20T23:24:44.763Z,72.50
2023-04-20T23:27:11.423Z,72.50
2023-04-20T23:29:38.079Z,72.50
2023-04-20T23:32:05.084Z,72.50
2023-04-20T23:34:31.824Z,72.50
2023-04-20T23:36:58.620Z,72.50
2023-04-20T23:39:25.426Z,72.50
2023-04-20T23:41:52.105Z,72.60
2023-04-20T23:44:18.819Z,72.60
2023-04-20T23:46:46.271Z,72.50
2023-04-20T23:49:13.001Z,72.60
2023-04-20T23:51:39.683Z,72.60
2023-04-20T23:54:06.393Z,72.50
2023-04-20T23:56:33.061Z,72.50
2023-04-20T23:58:59.758Z,72.60
